sensor_id;sensor_type;location;lat;lon;timestamp;pressure;altitude;pressure_sealevel;temperature;humidity
11339;BME280;5724;42.684;23.252;2023-01-29T00:01:33;94440.59;;;-2.24;100.00
11339;BME280;5724;42.684;23.252;2023-01-29T00:03:59;94436.03;;;-2.23;100.00
11339;BME280;5724;42.684;23.252;2023-01-29T00:06:25;94444.13;;;-2.34;100.00
11339;BME280;5724;42.684;23.252;2023-01-29T00:08:50;94440.91;;;-2.31;100.00
11339;BME280;5724;42.684;23.252;2023-01-29T00:11:16;94443.09;;;-2.43;100.00
11339;BME280;5724;42.684;23.252;2023-01-29T00:13:42;94452.19;;;-2.39;100.00
11339;BME280;5724;42.684;23.252;2023-01-29T00:16:08;94454.84;;;-2.39;100.00
11339;BME280;5724;42.684;23.252;2023-01-29T00:18:37;94455.66;;;-2.43;100.00
11339;BME280;5724;42.684;23.252;2023-01-29T00:21:03;94455.09;;;-2.35;100.00
11339;BME280;5724;42.684;23.252;2023-01-29T00:23:32;94459.66;;;-2.36;100.00
11339;BME280;5724;42.684;23.252;2023-01-29T00:25:58;94464.78;;;-2.44;100.00
11339;BME280;5724;42.684;23.252;2023-01-29T00:28:24;94454.88;;;-2.44;100.00
11339;BME280;5724;42.684;23.252;2023-01-29T00:30:49;94460.50;;;-2.45;100.00
11339;BME280;5724;42.684;23.252;2023-01-29T00:33:15;94470.97;;;-2.49;100.00
11339;BME280;5724;42.684;23.252;2023-01-29T00:35:40;94468.53;;;-2.40;100.00
11339;BME280;5724;42.684;23.252;2023-01-29T00:38:06;94458.84;;;-2.36;100.00
11339;BME280;5724;42.684;23.252;2023-01-29T00:40:31;94458.75;;;-2.16;100.00
11339;BME280;5724;42.684;23.252;2023-01-29T00:43:17;94461.31;;;-1.95;100.00
11339;BME280;5724;42.684;23.252;2023-01-29T00:46:01;94464.19;;;-1.82;100.00
11339;BME280;5724;42.684;23.252;2023-01-29T00:48:26;94457.22;;;-1.83;100.00
11339;BME280;5724;42.684;23.252;2023-01-29T00:50:52;94472.22;;;-1.87;100.00
11339;BME280;5724;42.684;23.252;2023-01-29T00:53:17;94464.91;;;-2.15;100.00
11339;BME280;5724;42.684;23.252;2023-01-29T00:55:43;94454.59;;;-2.37;100.00
11339;BME280;5724;42.684;23.252;2023-01-29T00:58:09;94471.72;;;-2.38;100.00
11339;BME280;5724;42.684;23.252;2023-01-29T01:00:34;94464.25;;;-2.51;100.00
11339;BME280;5724;42.684;23.252;2023-01-29T01:02:59;94464.53;;;-2.53;100.00
11339;BME280;5724;42.684;23.252;2023-01-29T01:05:31;94449.03;;;-2.56;100.00
11339;BME280;5724;42.684;23.252;2023-01-29T01:07:57;94469.38;;;-2.50;100.00
11339;BME280;5724;42.684;23.252;2023-01-29T01:10:31;94469.09;;;-2.53;100.00
11339;BME280;5724;42.684;23.252;2023-01-29T01:12:58;94459.69;;;-2.46;100.00
11339;BME280;5724;42.684;23.252;2023-01-29T01:15:30;94460.22;;;-2.39;100.00
11339;BME280;5724;42.684;23.252;2023-01-29T01:17:58;94461.03;;;-2.43;100.00
11339;BME280;5724;42.684;23.252;2023-01-29T01:20:25;94462.31;;;-2.36;100.00
11339;BME280;5724;42.684;23.252;2023-01-29T01:22:52;94455.38;;;-2.42;100.00
11339;BME280;5724;42.684;23.252;2023-01-29T01:25:18;94462.09;;;-2.39;100.00
11339;BME280;5724;42.684;23.252;2023-01-29T01:27:44;94461.84;;;-2.48;100.00
11339;BME280;5724;42.684;23.252;2023-01-29T01:30:13;94458.34;;;-2.43;100.00
11339;BME280;5724;42.684;23.252;2023-01-29T01:32:39;94464.50;;;-2.43;100.00
11339;BME280;5724;42.684;23.252;2023-01-29T01:35:06;94450.09;;;-2.52;100.00
11339;BME280;5724;42.684;23.252;2023-01-29T01:37:32;94467.75;;;-2.51;100.00
11339;BME280;5724;42.684;23.252;2023-01-29T01:39:57;94457.03;;;-2.46;100.00
11339;BME280;5724;42.684;23.252;2023-01-29T01:42:27;94459.69;;;-2.46;100.00
11339;BME280;5724;42.684;23.252;2023-01-29T01:44:59;94461.56;;;-2.41;100.00
11339;BME280;5724;42.684;23.252;2023-01-29T01:47:41;94464.25;;;-2.46;100.00
11339;BME280;5724;42.684;23.252;2023-01-29T01:50:12;94466.13;;;-2.47;100.00
11339;BME280;5724;42.684;23.252;2023-01-29T01:52:44;94470.41;;;-2.46;100.00
11339;BME280;5724;42.684;23.252;2023-01-29T01:55:13;94411.19;;;-2.83;100.00
11339;BME280;5724;42.684;23.252;2023-01-29T01:57:42;94469.09;;;-2.53;100.00
11339;BME280;5724;42.684;23.252;2023-01-29T02:00:13;94478.19;;;-2.49;100.00
11339;BME280;5724;42.684;23.252;2023-01-29T02:02:42;94467.13;;;-2.27;100.00
11339;BME280;5724;42.684;23.252;2023-01-29T02:05:30;94473.72;;;-2.10;100.00
11339;BME280;5724;42.684;23.252;2023-01-29T02:08:19;94475.47;;;-1.95;100.00
11339;BME280;5724;42.684;23.252;2023-01-29T02:11:07;94476.84;;;-1.97;100.00
11339;BME280;5724;42.684;23.252;2023-01-29T02:13:33;94469.72;;;-2.12;100.00
11339;BME280;5724;42.684;23.252;2023-01-29T02:15:58;94470.88;;;-2.28;100.00
11339;BME280;5724;42.684;23.252;2023-01-29T02:18:23;94472.56;;;-2.48;100.00
11339;BME280;5724;42.684;23.252;2023-01-29T02:21:06;94473.34;;;-2.52;100.00
11339;BME280;5724;42.684;23.252;2023-01-29T02:37:03;94473.44;;;-2.68;100.00
11339;BME280;5724;42.684;23.252;2023-01-29T02:42:27;94490.00;;;-2.61;100.00
11339;BME280;5724;42.684;23.252;2023-01-29T02:47:34;94494.00;;;-2.58;100.00
11339;BME280;5724;42.684;23.252;2023-01-29T02:55:27;94492.91;;;-2.57;100.00
11339;BME280;5724;42.684;23.252;2023-01-29T02:58:01;94481.41;;;-2.57;100.00
11339;BME280;5724;42.684;23.252;2023-01-29T03:00:35;94496.63;;;-2.53;100.00
11339;BME280;5724;42.684;23.252;2023-01-29T03:08:11;94496.34;;;-2.46;100.00
11339;BME280;5724;42.684;23.252;2023-01-29T03:10:46;94494.91;;;-2.18;100.00
11339;BME280;5724;42.684;23.252;2023-01-29T03:13:20;94496.44;;;-2.07;100.00
11339;BME280;5724;42.684;23.252;2023-01-29T03:15:54;94493.41;;;-1.90;100.00
11339;BME280;5724;42.684;23.252;2023-01-29T03:18:29;94500.31;;;-1.79;100.00
11339;BME280;5724;42.684;23.252;2023-01-29T03:21:02;94489.88;;;-1.86;100.00
11339;BME280;5724;42.684;23.252;2023-01-29T03:23:48;94500.25;;;-2.18;100.00
11339;BME280;5724;42.684;23.252;2023-01-29T03:26:32;94493.91;;;-2.38;100.00
11339;BME280;5724;42.684;23.252;2023-01-29T03:29:16;94444.81;;;-2.72;100.00
11339;BME280;5724;42.684;23.252;2023-01-29T03:32:01;94499.03;;;-2.41;100.00
11339;BME280;5724;42.684;23.252;2023-01-29T03:34:39;94506.53;;;-2.48;100.00
11339;BME280;5724;42.684;23.252;2023-01-29T03:40:02;94498.78;;;-2.50;100.00
11339;BME280;5724;42.684;23.252;2023-01-29T03:43:24;94498.50;;;-2.48;100.00
11339;BME280;5724;42.684;23.252;2023-01-29T03:45:38;94502.78;;;-2.52;100.00
11339;BME280;5724;42.684;23.252;2023-01-29T04:01:56;94477.16;;;-2.58;100.00
11339;BME280;5724;42.684;23.252;2023-01-29T04:04:30;94500.56;;;-2.30;100.00
11339;BME280;5724;42.684;23.252;2023-01-29T04:07:02;94497.53;;;-2.08;100.00
11339;BME280;5724;42.684;23.252;2023-01-29T04:09:39;94500.16;;;-2.03;100.00
11339;BME280;5724;42.684;23.252;2023-01-29T04:12:10;94501.41;;;-1.85;100.00
11339;BME280;5724;42.684;23.252;2023-01-29T04:14:37;94497.34;;;-1.78;100.00
11339;BME280;5724;42.684;23.252;2023-01-29T04:17:20;94511.75;;;-1.68;100.00
11339;BME280;5724;42.684;23.252;2023-01-29T04:19:47;94513.53;;;-1.98;100.00
11339;BME280;5724;42.684;23.252;2023-01-29T04:22:46;94509.13;;;-2.28;100.00
11339;BME280;5724;42.684;23.252;2023-01-29T04:25:16;94514.81;;;-2.45;100.00
11339;BME280;5724;42.684;23.252;2023-01-29T04:30:59;94501.50;;;-2.60;100.00
11339;BME280;5724;42.684;23.252;2023-01-29T04:37:41;94518.59;;;-2.61;100.00
11339;BME280;5724;42.684;23.252;2023-01-29T04:40:03;94510.59;;;-2.66;100.00
11339;BME280;5724;42.684;23.252;2023-01-29T04:42:41;94518.06;;;-2.63;100.00
11339;BME280;5724;42.684;23.252;2023-01-29T04:45:24;94517.53;;;-2.60;100.00
11339;BME280;5724;42.684;23.252;2023-01-29T04:50:51;94523.94;;;-2.61;100.00
11339;BME280;5724;42.684;23.252;2023-01-29T04:53:28;94509.53;;;-2.65;100.00
11339;BME280;5724;42.684;23.252;2023-01-29T04:56:08;94527.16;;;-2.64;100.00
11339;BME280;5724;42.684;23.252;2023-01-29T04:58:51;94523.38;;;-2.53;100.00
11339;BME280;5724;42.684;23.252;2023-01-29T05:01:20;94521.19;;;-2.36;100.00
11339;BME280;5724;42.684;23.252;2023-01-29T05:03:51;94519.56;;;-2.26;100.00
11339;BME280;5724;42.684;23.252;2023-01-29T05:06:19;94516.56;;;-2.15;100.00
11339;BME280;5724;42.684;23.252;2023-01-29T05:08:46;94524.00;;;-2.07;100.00
11339;BME280;5724;42.684;23.252;2023-01-29T05:11:15;94522.47;;;-2.23;100.00
11339;BME280;5724;42.684;23.252;2023-01-29T05:13:42;94524.72;;;-2.45;100.00
11339;BME280;5724;42.684;23.252;2023-01-29T05:16:19;94512.19;;;-2.70;100.00
11339;BME280;5724;42.684;23.252;2023-01-29T05:18:46;94526.91;;;-2.68;100.00
11339;BME280;5724;42.684;23.252;2023-01-29T05:21:12;94528.78;;;-2.73;100.00
11339;BME280;5724;42.684;23.252;2023-01-29T05:23:38;94532.00;;;-2.71;100.00
11339;BME280;5724;42.684;23.252;2023-01-29T05:26:04;94535.75;;;-2.72;100.00
11339;BME280;5724;42.684;23.252;2023-01-29T05:28:30;94526.63;;;-2.71;100.00
11339;BME280;5724;42.684;23.252;2023-01-29T05:30:56;94534.66;;;-2.71;100.00
11339;BME280;5724;42.684;23.252;2023-01-29T05:33:24;94535.22;;;-2.69;100.00
11339;BME280;5724;42.684;23.252;2023-01-29T05:35:50;94543.22;;;-2.64;100.00
11339;BME280;5724;42.684;23.252;2023-01-29T05:38:16;94545.38;;;-2.66;100.00
11339;BME280;5724;42.684;23.252;2023-01-29T05:40:42;94536.28;;;-2.65;100.00
11339;BME280;5724;42.684;23.252;2023-01-29T05:43:19;94541.34;;;-2.64;100.00
11339;BME280;5724;42.684;23.252;2023-01-29T05:45:57;94541.06;;;-2.62;100.00
11339;BME280;5724;42.684;23.252;2023-01-29T05:48:23;94553.63;;;-2.57;100.00
11339;BME280;5724;42.684;23.252;2023-01-29T05:50:49;94549.63;;;-2.65;100.00
11339;BME280;5724;42.684;23.252;2023-01-29T05:53:15;94553.38;;;-2.61;100.00
11339;BME280;5724;42.684;23.252;2023-01-29T05:55:44;94561.38;;;-2.61;100.00
11339;BME280;5724;42.684;23.252;2023-01-29T05:58:10;94550.72;;;-2.66;100.00
11339;BME280;5724;42.684;23.252;2023-01-29T06:00:36;94554.69;;;-2.48;100.00
11339;BME280;5724;42.684;23.252;2023-01-29T06:03:01;94561.38;;;-2.61;100.00
11339;BME280;5724;42.684;23.252;2023-01-29T06:05:27;94566.47;;;-2.65;100.00
11339;BME280;5724;42.684;23.252;2023-01-29T06:07:52;94563.56;;;-2.78;100.00
11339;BME280;5724;42.684;23.252;2023-01-29T06:10:18;94569.44;;;-2.66;100.00
11339;BME280;5724;42.684;23.252;2023-01-29T06:12:44;94572.38;;;-2.68;100.00
11339;BME280;5724;42.684;23.252;2023-01-29T06:15:10;94574.78;;;-2.66;100.00
11339;BME280;5724;42.684;23.252;2023-01-29T06:17:36;94577.47;;;-2.66;100.00
11339;BME280;5724;42.684;23.252;2023-01-29T06:20:03;94577.22;;;-2.70;100.00
11339;BME280;5724;42.684;23.252;2023-01-29T06:22:29;94591.09;;;-2.68;100.00
11339;BME280;5724;42.684;23.252;2023-01-29T06:24:54;94580.13;;;-2.71;100.00
11339;BME280;5724;42.684;23.252;2023-01-29T06:27:20;94584.16;;;-2.74;100.00
11339;BME280;5724;42.684;23.252;2023-01-29T06:29:45;94595.91;;;-2.65;100.00
11339;BME280;5724;42.684;23.252;2023-01-29T06:32:11;94595.91;;;-2.65;100.00
11339;BME280;5724;42.684;23.252;2023-01-29T06:34:36;94597.78;;;-2.65;100.00
11339;BME280;5724;42.684;23.252;2023-01-29T06:37:20;94605.78;;;-2.70;100.00
11339;BME280;5724;42.684;23.252;2023-01-29T06:39:46;94606.59;;;-2.65;100.00
11339;BME280;5724;42.684;23.252;2023-01-29T06:42:11;94599.66;;;-2.66;100.00
11339;BME280;5724;42.684;23.252;2023-01-29T06:44:37;94605.53;;;-2.58;100.00
11339;BME280;5724;42.684;23.252;2023-01-29T06:47:02;94607.34;;;-2.34;100.00
11339;BME280;5724;42.684;23.252;2023-01-29T06:49:28;94606.75;;;-2.15;100.00
11339;BME280;5724;42.684;23.252;2023-01-29T06:51:53;94605.16;;;-2.11;100.00
11339;BME280;5724;42.684;23.252;2023-01-29T06:54:19;94614.72;;;-1.95;100.00
11339;BME280;5724;42.684;23.252;2023-01-29T06:56:44;94614.44;;;-1.93;100.00
11339;BME280;5724;42.684;23.252;2023-01-29T06:59:10;94614.63;;;-1.75;100.00
11339;BME280;5724;42.684;23.252;2023-01-29T07:01:40;94609.09;;;-1.93;100.00
11339;BME280;5724;42.684;23.252;2023-01-29T07:04:06;94617.50;;;-2.20;100.00
11339;BME280;5724;42.684;23.252;2023-01-29T07:06:32;94618.06;;;-2.39;100.00
11339;BME280;5724;42.684;23.252;2023-01-29T07:08:58;94619.16;;;-2.40;100.00
11339;BME280;5724;42.684;23.252;2023-01-29T07:11:24;94621.81;;;-2.40;100.00
11339;BME280;5724;42.684;23.252;2023-01-29T07:13:49;94622.63;;;-2.39;100.00
11339;BME280;5724;42.684;23.252;2023-01-29T07:16:15;94637.06;;;-2.35;100.00
11339;BME280;5724;42.684;23.252;2023-01-29T07:18:40;94634.13;;;-2.44;100.00
11339;BME280;5724;42.684;23.252;2023-01-29T07:21:06;94633.88;;;-2.47;100.00
11339;BME280;5724;42.684;23.252;2023-01-29T07:23:33;94637.88;;;-2.45;100.00
11339;BME280;5724;42.684;23.252;2023-01-29T07:26:03;94650.72;;;-2.47;100.00
11339;BME280;5724;42.684;23.252;2023-01-29T07:28:29;94635.19;;;-2.45;100.00
11339;BME280;5724;42.684;23.252;2023-01-29T07:30:58;94641.34;;;-2.44;100.00
11339;BME280;5724;42.684;23.252;2023-01-29T07:33:24;94653.94;;;-2.40;100.00
11339;BME280;5724;42.684;23.252;2023-01-29T07:35:49;94643.22;;;-2.45;100.00
11339;BME280;5724;42.684;23.252;2023-01-29T07:38:15;94651.53;;;-2.41;100.00
11339;BME280;5724;42.684;23.252;2023-01-29T07:40:40;94638.16;;;-2.41;100.00
11339;BME280;5724;42.684;23.252;2023-01-29T07:43:06;94649.66;;;-2.41;100.00
11339;BME280;5724;42.684;23.252;2023-01-29T07:45:36;94640.28;;;-2.43;100.00
11339;BME280;5724;42.684;23.252;2023-01-29T07:48:03;94644.31;;;-2.41;100.00
11339;BME280;5724;42.684;23.252;2023-01-29T07:50:29;94657.66;;;-2.36;100.00
11339;BME280;5724;42.684;23.252;2023-01-29T07:52:55;94658.22;;;-2.39;100.00
11339;BME280;5724;42.684;23.252;2023-01-29T07:55:21;94652.56;;;-2.32;100.00
11339;BME280;5724;42.684;23.252;2023-01-29T07:57:46;94660.84;;;-2.34;100.00
11339;BME280;5724;42.684;23.252;2023-01-29T08:00:13;94658.19;;;-2.34;100.00
11339;BME280;5724;42.684;23.252;2023-01-29T08:02:40;94661.38;;;-2.26;100.00
11339;BME280;5724;42.684;23.252;2023-01-29T08:05:06;94657.63;;;-2.25;100.00
11339;BME280;5724;42.684;23.252;2023-01-29T08:07:31;94668.34;;;-2.25;100.00
11339;BME280;5724;42.684;23.252;2023-01-29T08:09:57;94652.84;;;-2.28;100.00
11339;BME280;5724;42.684;23.252;2023-01-29T08:12:22;94661.91;;;-2.24;100.00
11339;BME280;5724;42.684;23.252;2023-01-29T08:14:48;94664.06;;;-2.26;100.00
11339;BME280;5724;42.684;23.252;2023-01-29T08:17:14;94649.09;;;-2.38;100.00
11339;BME280;5724;42.684;23.252;2023-01-29T08:19:40;94671.03;;;-2.31;100.00
11339;BME280;5724;42.684;23.252;2023-01-29T08:22:05;94663.84;;;-2.40;100.00
11339;BME280;5724;42.684;23.252;2023-01-29T08:24:31;94669.44;;;-2.37;100.00
11339;BME280;5724;42.684;23.252;2023-01-29T08:26:58;94655.53;;;-2.39;100.00
11339;BME280;5724;42.684;23.252;2023-01-29T08:29:23;94664.59;;;-2.35;100.00
11339;BME280;5724;42.684;23.252;2023-01-29T08:31:49;94662.47;;;-2.38;100.00
11339;BME280;5724;42.684;23.252;2023-01-29T08:34:14;94665.97;;;-2.47;100.00
11339;BME280;5724;42.684;23.252;2023-01-29T08:36:39;94677.75;;;-2.38;100.00
11339;BME280;5724;42.684;23.252;2023-01-29T08:39:05;94679.88;;;-2.35;100.00
11339;BME280;5724;42.684;23.252;2023-01-29T08:41:30;94682.56;;;-2.40;100.00
11339;BME280;5724;42.684;23.252;2023-01-29T08:43:56;94686.84;;;-2.39;100.00
11339;BME280;5724;42.684;23.252;2023-01-29T08:46:22;94701.00;;;-2.44;100.00
11339;BME280;5724;42.684;23.252;2023-01-29T08:48:48;94689.50;;;-2.44;100.00
11339;BME280;5724;42.684;23.252;2023-01-29T08:51:13;94697.00;;;-2.36;100.00
11339;BME280;5724;42.684;23.252;2023-01-29T08:53:39;94694.56;;;-2.33;100.00
11339;BME280;5724;42.684;23.252;2023-01-29T08:56:04;94708.50;;;-2.31;100.00
11339;BME280;5724;42.684;23.252;2023-01-29T08:58:30;94705.28;;;-2.33;100.00
11339;BME280;5724;42.684;23.252;2023-01-29T09:00:56;94705.84;;;-2.31;100.00
11339;BME280;5724;42.684;23.252;2023-01-29T09:03:21;94699.13;;;-2.38;100.00
11339;BME280;5724;42.684;23.252;2023-01-29T09:05:47;94707.44;;;-2.29;100.00
11339;BME280;5724;42.684;23.252;2023-01-29T09:08:12;94703.69;;;-2.28;100.00
11339;BME280;5724;42.684;23.252;2023-01-29T09:10:39;94701.00;;;-2.28;100.00
11339;BME280;5724;42.684;23.252;2023-01-29T09:13:05;94708.22;;;-2.24;100.00
11339;BME280;5724;42.684;23.252;2023-01-29T09:15:30;94711.72;;;-2.28;100.00
11339;BME280;5724;42.684;23.252;2023-01-29T09:17:56;94695.09;;;-2.25;100.00
11339;BME280;5724;42.684;23.252;2023-01-29T09:20:21;94701.53;;;-2.26;100.00
11339;BME280;5724;42.684;23.252;2023-01-29T09:22:47;94706.09;;;-2.22;100.00
11339;BME280;5724;42.684;23.252;2023-01-29T09:25:13;94699.41;;;-2.29;100.00
11339;BME280;5724;42.684;23.252;2023-01-29T09:27:39;94697.53;;;-2.34;100.00
11339;BME280;5724;42.684;23.252;2023-01-29T09:30:05;94695.13;;;-2.46;100.00
11339;BME280;5724;42.684;23.252;2023-01-29T09:32:32;94690.84;;;-2.37;100.00
11339;BME280;5724;42.684;23.252;2023-01-29T09:34:58;94704.22;;;-2.32;100.00
11339;BME280;5724;42.684;23.252;2023-01-29T09:37:23;94699.91;;;-2.33;100.00
11339;BME280;5724;42.684;23.252;2023-01-29T09:39:49;94635.22;;;-2.70;100.00
11339;BME280;5724;42.684;23.252;2023-01-29T09:42:22;94683.88;;;-2.33;100.00
11339;BME280;5724;42.684;23.252;2023-01-29T09:45:11;94695.38;;;-2.32;100.00
11339;BME280;5724;42.684;23.252;2023-01-29T09:47:38;94691.91;;;-2.38;100.00
11339;BME280;5724;42.684;23.252;2023-01-29T09:52:52;94693.53;;;-2.47;100.00
11339;BME280;5724;42.684;23.252;2023-01-29T09:55:29;94685.47;;;-2.42;100.00
11339;BME280;5724;42.684;23.252;2023-01-29T09:58:04;94687.91;;;-2.40;100.00
11339;BME280;5724;42.684;23.252;2023-01-29T10:06:08;94680.66;;;-2.35;100.00
11339;BME280;5724;42.684;23.252;2023-01-29T10:19:51;94677.19;;;-2.45;100.00
11339;BME280;5724;42.684;23.252;2023-01-29T10:25:26;94669.69;;;-2.43;100.00
11339;BME280;5724;42.684;23.252;2023-01-29T10:27:55;94669.97;;;-2.40;100.00
11339;BME280;5724;42.684;23.252;2023-01-29T10:32:47;94657.41;;;-2.49;100.00
11339;BME280;5724;42.684;23.252;2023-01-29T10:35:28;94656.88;;;-2.41;100.00
11339;BME280;5724;42.684;23.252;2023-01-29T10:37:57;94658.72;;;-2.42;100.00
11339;BME280;5724;42.684;23.252;2023-01-29T10:40:35;94653.13;;;-2.40;100.00
11339;BME280;5724;42.684;23.252;2023-01-29T10:43:13;94661.97;;;-2.50;100.00
11339;BME280;5724;42.684;23.252;2023-01-29T10:45:51;94672.41;;;-2.58;100.00
11339;BME280;5724;42.684;23.252;2023-01-29T10:51:42;94653.69;;;-2.58;100.00
11339;BME280;5724;42.684;23.252;2023-01-29T10:57:17;94643.22;;;-2.55;100.00
11339;BME280;5724;42.684;23.252;2023-01-29T11:00:25;94652.59;;;-2.57;100.00
11339;BME280;5724;42.684;23.252;2023-01-29T11:02:52;94649.91;;;-2.47;100.00
11339;BME280;5724;42.684;23.252;2023-01-29T11:05:32;94635.72;;;-2.43;100.00
11339;BME280;5724;42.684;23.252;2023-01-29T11:08:09;94637.88;;;-2.50;100.00
11339;BME280;5724;42.684;23.252;2023-01-29T11:10:40;94638.97;;;-2.51;100.00
11339;BME280;5724;42.684;23.252;2023-01-29T11:13:10;94632.25;;;-2.38;100.00
11339;BME280;5724;42.684;23.252;2023-01-29T11:15:38;94635.72;;;-2.38;100.00
11339;BME280;5724;42.684;23.252;2023-01-29T11:18:12;94615.44;;;-2.59;100.00
11339;BME280;5724;42.684;23.252;2023-01-29T11:20:41;94637.84;;;-2.35;100.00
11339;BME280;5724;42.684;23.252;2023-01-29T11:23:30;94623.41;;;-2.34;100.00
11339;BME280;5724;42.684;23.252;2023-01-29T11:25:57;94602.59;;;-2.57;100.00
11339;BME280;5724;42.684;23.252;2023-01-29T11:28:39;94630.91;;;-2.36;100.00
11339;BME280;5724;42.684;23.252;2023-01-29T11:31:33;94637.84;;;-2.19;100.00
11339;BME280;5724;42.684;23.252;2023-01-29T11:34:11;94625.28;;;-2.29;100.00
11339;BME280;5724;42.684;23.252;2023-01-29T11:36:38;94617.53;;;-2.31;100.00
11339;BME280;5724;42.684;23.252;2023-01-29T11:41:42;94604.13;;;-2.25;100.00
11339;BME280;5724;42.684;23.252;2023-01-29T11:46:52;94600.31;;;-2.14;100.00
11339;BME280;5724;42.684;23.252;2023-01-29T11:49:28;94601.94;;;-2.13;100.00
11339;BME280;5724;42.684;23.252;2023-01-29T11:51:55;94595.78;;;-2.14;100.00
11339;BME280;5724;42.684;23.252;2023-01-29T11:54:24;94605.91;;;-2.06;100.00
11339;BME280;5724;42.684;23.252;2023-01-29T11:56:53;94596.53;;;-1.98;100.00
11339;BME280;5724;42.684;23.252;2023-01-29T11:59:39;94610.19;;;-1.99;100.00
11339;BME280;5724;42.684;23.252;2023-01-29T12:02:18;94606.16;;;-1.97;100.00
11339;BME280;5724;42.684;23.252;2023-01-29T12:04:45;94597.56;;;-1.94;100.00
11339;BME280;5724;42.684;23.252;2023-01-29T12:07:14;94583.16;;;-1.98;100.00
11339;BME280;5724;42.684;23.252;2023-01-29T12:09:40;94593.84;;;-1.98;100.00
11339;BME280;5724;42.684;23.252;2023-01-29T12:12:17;94589.56;;;-1.99;100.00
11339;BME280;5724;42.684;23.252;2023-01-29T12:17:35;94588.22;;;-1.91;100.00
11339;BME280;5724;42.684;23.252;2023-01-29T12:20:25;94596.47;;;-1.88;100.00
11339;BME280;5724;42.684;23.252;2023-01-29T12:22:58;94606.69;;;-1.90;100.00
11339;BME280;5724;42.684;23.252;2023-01-29T12:25:43;94601.88;;;-1.93;100.00
11339;BME280;5724;42.684;23.252;2023-01-29T12:36:40;94590.06;;;-1.87;100.00
11339;BME280;5724;42.684;23.252;2023-01-29T12:39:13;94592.28;;;-2.09;100.00
11339;BME280;5724;42.684;23.252;2023-01-29T12:41:58;94604.28;;;-1.96;100.00
11339;BME280;5724;42.684;23.252;2023-01-29T12:44:40;94587.97;;;-2.00;100.00
11339;BME280;5724;42.684;23.252;2023-01-29T12:47:46;94595.97;;;-1.90;100.00
11339;BME280;5724;42.684;23.252;2023-01-29T12:50:21;94589.75;;;-1.80;100.00
11339;BME280;5724;42.684;23.252;2023-01-29T12:55:45;94601.56;;;-1.86;100.00
11339;BME280;5724;42.684;23.252;2023-01-29T12:58:23;94590.88;;;-1.91;100.00
11339;BME280;5724;42.684;23.252;2023-01-29T13:00:56;94597.56;;;-1.94;100.00
11339;BME280;5724;42.684;23.252;2023-01-29T13:03:31;94581.25;;;-1.97;100.00
11339;BME280;5724;42.684;23.252;2023-01-29T13:06:01;94595.97;;;-1.90;100.00
11339;BME280;5724;42.684;23.252;2023-01-29T13:08:40;94591.44;;;-1.99;100.00
11339;BME280;5724;42.684;23.252;2023-01-29T13:11:13;94591.19;;;-2.03;100.00
11339;BME280;5724;42.684;23.252;2023-01-29T13:13:44;94588.03;;;-2.10;100.00
11339;BME280;5724;42.684;23.252;2023-01-29T13:16:18;94589.59;;;-2.04;100.00
11339;BME280;5724;42.684;23.252;2023-01-29T13:18:57;94593.84;;;-2.03;100.00
11339;BME280;5724;42.684;23.252;2023-01-29T13:21:26;94589.06;;;-2.01;100.00
11339;BME280;5724;42.684;23.252;2023-01-29T13:24:06;94592.50;;;-1.90;100.00
11339;BME280;5724;42.684;23.252;2023-01-29T13:26:35;94590.09;;;-1.92;100.00
11339;BME280;5724;42.684;23.252;2023-01-29T13:29:02;94590.66;;;-2.05;100.00
11339;BME280;5724;42.684;23.252;2023-01-29T13:31:34;94591.75;;;-2.06;100.00
11339;BME280;5724;42.684;23.252;2023-01-29T13:36:44;94603.53;;;-2.02;100.00
11339;BME280;5724;42.684;23.252;2023-01-29T13:39:19;94601.38;;;-2.00;100.00
11339;BME280;5724;42.684;23.252;2023-01-29T13:41:46;94606.16;;;-1.97;100.00
11339;BME280;5724;42.684;23.252;2023-01-29T13:44:21;94591.00;;;-2.22;100.00
11339;BME280;5724;42.684;23.252;2023-01-29T13:47:08;94568.91;;;-2.73;100.00
11339;BME280;5724;42.684;23.252;2023-01-29T13:49:45;94611.66;;;-2.48;100.00
11339;BME280;5724;42.684;23.252;2023-01-29T13:55:01;94610.25;;;-2.25;100.00
11339;BME280;5724;42.684;23.252;2023-01-29T13:57:48;94608.34;;;-2.09;100.00
11339;BME280;5724;42.684;23.252;2023-01-29T14:10:41;94623.66;;;-2.20;100.00
11339;BME280;5724;42.684;23.252;2023-01-29T14:18:35;94635.69;;;-2.27;100.00
11339;BME280;5724;42.684;23.252;2023-01-29T14:21:02;94637.03;;;-2.25;100.00
11339;BME280;5724;42.684;23.252;2023-01-29T14:28:51;94638.94;;;-2.31;100.00
11339;BME280;5724;42.684;23.252;2023-01-29T14:31:39;94649.06;;;-2.22;100.00
11339;BME280;5724;42.684;23.252;2023-01-29T14:34:14;94632.81;;;-2.41;100.00
11339;BME280;5724;42.684;23.252;2023-01-29T14:36:41;94649.09;;;-2.27;100.00
11339;BME280;5724;42.684;23.252;2023-01-29T14:39:35;94624.53;;;-2.60;100.00
11339;BME280;5724;42.684;23.252;2023-01-29T14:42:12;94641.06;;;-2.33;100.00
11339;BME280;5724;42.684;23.252;2023-01-29T14:47:50;94645.59;;;-2.33;100.00
11339;BME280;5724;42.684;23.252;2023-01-29T14:52:53;94645.59;;;-2.33;100.00
11339;BME280;5724;42.684;23.252;2023-01-29T14:55:30;94624.53;;;-2.60;100.00
11339;BME280;5724;42.684;23.252;2023-01-29T14:58:01;94640.00;;;-2.37;100.00
11339;BME280;5724;42.684;23.252;2023-01-29T15:00:34;94645.09;;;-2.45;100.00
11339;BME280;5724;42.684;23.252;2023-01-29T15:03:04;94627.72;;;-2.58;100.00
11339;BME280;5724;42.684;23.252;2023-01-29T15:05:36;94637.88;;;-2.45;100.00
11339;BME280;5724;42.684;23.252;2023-01-29T15:08:14;94643.47;;;-2.36;100.00
11339;BME280;5724;42.684;23.252;2023-01-29T15:10:45;94621.31;;;-2.62;100.00
11339;BME280;5724;42.684;23.252;2023-01-29T15:13:29;94632.28;;;-2.48;100.00
11339;BME280;5724;42.684;23.252;2023-01-29T15:16:15;94641.34;;;-2.39;100.00
11339;BME280;5724;42.684;23.252;2023-01-29T15:18:43;94651.50;;;-2.36;100.00
11339;BME280;5724;42.684;23.252;2023-01-29T15:21:13;94641.06;;;-2.38;100.00
11339;BME280;5724;42.684;23.252;2023-01-29T15:23:40;94640.28;;;-2.38;100.00
11339;BME280;5724;42.684;23.252;2023-01-29T15:26:20;94653.38;;;-2.32;100.00
11339;BME280;5724;42.684;23.252;2023-01-29T15:28:54;94647.19;;;-2.32;100.00